sensor_id;sensor_type;location;lat;lon;timestamp;temperature;humidity
14585;DHT22;7379;51.506;11.876;2023-09-18T00:00:44;20.80;68.40
14585;DHT22;7379;51.506;11.876;2023-09-18T00:03:11;20.80;68.40
14585;DHT22;7379;51.506;11.876;2023-09-18T00:05:38;20.80;68.50
14585;DHT22;7379;51.506;11.876;2023-09-18T00:08:05;20.70;68.60
14585;DHT22;7379;51.506;11.876;2023-09-18T00:10:31;20.70;68.60
14585;DHT22;7379;51.506;11.876;2023-09-18T00:12:58;20.70;68.60
14585;DHT22;7379;51.506;11.876;2023-09-18T00:15:26;20.70;68.60
14585;DHT22;7379;51.506;11.876;2023-09-18T00:17:53;20.70;68.70
14585;DHT22;7379;51.506;11.876;2023-09-18T00:20:20;20.70;68.70
14585;DHT22;7379;51.506;11.876;2023-09-18T00:22:52;20.70;68.70
14585;DHT22;7379;51.506;11.876;2023-09-18T00:25:19;20.70;68.80
14585;DHT22;7379;51.506;11.876;2023-09-18T00:27:45;20.70;68.80
14585;DHT22;7379;51.506;11.876;2023-09-18T00:30:12;20.70;68.70
14585;DHT22;7379;51.506;11.876;2023-09-18T00:32:41;20.60;68.60
14585;DHT22;7379;51.506;11.876;2023-09-18T00:35:07;20.60;68.70
14585;DHT22;7379;51.506;11.876;2023-09-18T00:37:34;20.60;68.70
14585;DHT22;7379;51.506;11.876;2023-09-18T00:40:02;20.60;68.60
14585;DHT22;7379;51.506;11.876;2023-09-18T00:42:30;20.60;68.70
14585;DHT22;7379;51.506;11.876;2023-09-18T00:44:57;20.60;68.80
14585;DHT22;7379;51.506;11.876;2023-09-18T00:47:24;20.60;68.80
14585;DHT22;7379;51.506;11.876;2023-09-18T00:49:53;20.60;68.90
14585;DHT22;7379;51.506;11.876;2023-09-18T00:52:21;20.60;69.00
14585;DHT22;7379;51.506;11.876;2023-09-18T00:54:50;20.60;69.00
14585;DHT22;7379;51.506;11.876;2023-09-18T00:57:17;20.50;68.90
14585;DHT22;7379;51.506;11.876;2023-09-18T00:59:45;20.60;69.00
14585;DHT22;7379;51.506;11.876;2023-09-18T01:02:12;20.60;69.00
14585;DHT22;7379;51.506;11.876;2023-09-18T01:04:39;20.50;68.90
14585;DHT22;7379;51.506;11.876;2023-09-18T01:07:10;20.50;68.90
14585;DHT22;7379;51.506;11.876;2023-09-18T01:09:37;20.50;69.00
14585;DHT22;7379;51.506;11.876;2023-09-18T01:12:08;20.50;69.00
14585;DHT22;7379;51.506;11.876;2023-09-18T01:14:42;20.50;69.00
14585;DHT22;7379;51.506;11.876;2023-09-18T01:17:10;20.50;69.20
14585;DHT22;7379;51.506;11.876;2023-09-18T01:19:40;20.50;69.20
14585;DHT22;7379;51.506;11.876;2023-09-18T01:22:12;20.50;69.20
14585;DHT22;7379;51.506;11.876;2023-09-18T01:24:41;20.50;69.30
14585;DHT22;7379;51.506;11.876;2023-09-18T01:27:09;20.50;69.30
14585;DHT22;7379;51.506;11.876;2023-09-18T01:29:36;20.40;69.20
14585;DHT22;7379;51.506;11.876;2023-09-18T01:32:03;20.40;69.30
14585;DHT22;7379;51.506;11.876;2023-09-18T01:34:32;20.40;69.30
14585;DHT22;7379;51.506;11.876;2023-09-18T01:37:02;20.40;69.30
14585;DHT22;7379;51.506;11.876;2023-09-18T01:39:30;20.40;69.30
14585;DHT22;7379;51.506;11.876;2023-09-18T01:41:59;20.40;69.40
14585;DHT22;7379;51.506;11.876;2023-09-18T01:44:27;20.40;69.40
14585;DHT22;7379;51.506;11.876;2023-09-18T01:46:56;20.40;69.40
14585;DHT22;7379;51.506;11.876;2023-09-18T01:49:28;20.40;69.40
14585;DHT22;7379;51.506;11.876;2023-09-18T01:51:55;20.40;69.50
14585;DHT22;7379;51.506;11.876;2023-09-18T01:54:22;20.40;69.50
14585;DHT22;7379;51.506;11.876;2023-09-18T01:56:49;20.40;69.50
14585;DHT22;7379;51.506;11.876;2023-09-18T01:59:17;20.30;69.50
14585;DHT22;7379;51.506;11.876;2023-09-18T02:01:43;20.30;69.50
14585;DHT22;7379;51.506;11.876;2023-09-18T02:04:10;20.30;69.50
14585;DHT22;7379;51.506;11.876;2023-09-18T02:06:37;20.30;69.50
14585;DHT22;7379;51.506;11.876;2023-09-18T02:09:05;20.30;69.60
14585;DHT22;7379;51.506;11.876;2023-09-18T02:11:33;20.30;69.60
14585;DHT22;7379;51.506;11.876;2023-09-18T02:13:59;20.30;69.70
14585;DHT22;7379;51.506;11.876;2023-09-18T02:16:27;20.30;69.70
14585;DHT22;7379;51.506;11.876;2023-09-18T02:18:55;20.30;69.70
14585;DHT22;7379;51.506;11.876;2023-09-18T02:21:22;20.30;69.70
14585;DHT22;7379;51.506;11.876;2023-09-18T02:23:49;20.20;69.70
14585;DHT22;7379;51.506;11.876;2023-09-18T02:26:16;20.20;69.70
14585;DHT22;7379;51.506;11.876;2023-09-18T02:28:43;20.20;69.80
14585;DHT22;7379;51.506;11.876;2023-09-18T02:31:10;20.20;69.80
14585;DHT22;7379;51.506;11.876;2023-09-18T02:33:39;20.20;69.80
14585;DHT22;7379;51.506;11.876;2023-09-18T02:36:06;20.20;69.90
14585;DHT22;7379;51.506;11.876;2023-09-18T02:38:33;20.20;69.90
14585;DHT22;7379;51.506;11.876;2023-09-18T02:41:00;20.20;69.90
14585;DHT22;7379;51.506;11.876;2023-09-18T02:43:27;20.20;70.00
14585;DHT22;7379;51.506;11.876;2023-09-18T02:45:54;20.20;70.00
14585;DHT22;7379;51.506;11.876;2023-09-18T02:48:20;20.10;69.90
14585;DHT22;7379;51.506;11.876;2023-09-18T02:50:48;20.10;70.00
14585;DHT22;7379;51.506;11.876;2023-09-18T02:53:17;20.10;70.00
14585;DHT22;7379;51.506;11.876;2023-09-18T02:55:45;20.10;70.00
14585;DHT22;7379;51.506;11.876;2023-09-18T02:58:12;20.10;70.00
14585;DHT22;7379;51.506;11.876;2023-09-18T03:00:41;20.10;70.10
14585;DHT22;7379;51.506;11.876;2023-09-18T03:03:08;20.10;70.10
14585;DHT22;7379;51.506;11.876;2023-09-18T03:05:36;20.10;70.20
14585;DHT22;7379;51.506;11.876;2023-09-18T03:08:05;20.10;70.20
14585;DHT22;7379;51.506;11.876;2023-09-18T03:10:33;20.00;70.20
14585;DHT22;7379;51.506;11.876;2023-09-18T03:13:00;20.00;70.20
14585;DHT22;7379;51.506;11.876;2023-09-18T03:15:27;20.00;70.20
14585;DHT22;7379;51.506;11.876;2023-09-18T03:17:54;20.00;70.30
14585;DHT22;7379;51.506;11.876;2023-09-18T03:20:22;20.00;70.30
14585;DHT22;7379;51.506;11.876;2023-09-18T03:22:50;20.00;70.30
14585;DHT22;7379;51.506;11.876;2023-09-18T03:25:18;20.00;70.40
14585;DHT22;7379;51.506;11.876;2023-09-18T03:27:45;20.00;70.40
14585;DHT22;7379;51.506;11.876;2023-09-18T03:30:12;20.00;70.40
14585;DHT22;7379;51.506;11.876;2023-09-18T03:32:41;20.00;70.40
14585;DHT22;7379;51.506;11.876;2023-09-18T03:35:08;20.00;70.40
14585;DHT22;7379;51.506;11.876;2023-09-18T03:37:40;20.00;70.40
14585;DHT22;7379;51.506;11.876;2023-09-18T03:40:08;19.90;70.40
14585;DHT22;7379;51.506;11.876;2023-09-18T03:42:37;19.90;70.40
14585;DHT22;7379;51.506;11.876;2023-09-18T03:45:05;19.90;70.40
14585;DHT22;7379;51.506;11.876;2023-09-18T03:47:33;19.90;70.50
14585;DHT22;7379;51.506;11.876;2023-09-18T03:50:00;19.90;70.60
14585;DHT22;7379;51.506;11.876;2023-09-18T03:52:27;19.90;70.60
14585;DHT22;7379;51.506;11.876;2023-09-18T03:54:54;19.90;70.60
14585;DHT22;7379;51.506;11.876;2023-09-18T03:57:21;19.90;70.60
14585;DHT22;7379;51.506;11.876;2023-09-18T03:59:49;19.90;70.60
14585;DHT22;7379;51.506;11.876;2023-09-18T04:02:15;19.80;70.60
14585;DHT22;7379;51.506;11.876;2023-09-18T04:04:42;19.80;70.60
14585;DHT22;7379;51.506;11.876;2023-09-18T04:07:09;19.80;70.60
14585;DHT22;7379;51.506;11.876;2023-09-18T04:09:37;19.80;70.60
14585;DHT22;7379;51.506;11.876;2023-09-18T04:12:05;19.80;70.60
14585;DHT22;7379;51.506;11.876;2023-09-18T04:14:32;19.80;70.60
14585;DHT22;7379;51.506;11.876;2023-09-18T04:17:00;19.80;70.70
14585;DHT22;7379;51.506;11.876;2023-09-18T04:19:27;19.80;70.70
14585;DHT22;7379;51.506;11.876;2023-09-18T04:21:54;19.80;70.70
14585;DHT22;7379;51.506;11.876;2023-09-18T04:24:21;19.80;70.70
14585;DHT22;7379;51.506;11.876;2023-09-18T04:26:49;19.70;70.70
14585;DHT22;7379;51.506;11.876;2023-09-18T04:29:16;19.70;70.70
14585;DHT22;7379;51.506;11.876;2023-09-18T04:31:43;19.70;70.80
14585;DHT22;7379;51.506;11.876;2023-09-18T04:34:12;19.70;70.80
14585;DHT22;7379;51.506;11.876;2023-09-18T04:36:39;19.80;70.90
14585;DHT22;7379;51.506;11.876;2023-09-18T04:39:05;19.70;70.80
14585;DHT22;7379;51.506;11.876;2023-09-18T04:41:33;19.70;70.90
14585;DHT22;7379;51.506;11.876;2023-09-18T04:44:00;19.70;70.90
14585;DHT22;7379;51.506;11.876;2023-09-18T04:46:26;19.70;70.90
14585;DHT22;7379;51.506;11.876;2023-09-18T04:48:55;19.70;70.90
14585;DHT22;7379;51.506;11.876;2023-09-18T04:51:23;19.70;71.00
14585;DHT22;7379;51.506;11.876;2023-09-18T04:53:49;19.60;70.90
14585;DHT22;7379;51.506;11.876;2023-09-18T04:56:17;19.60;70.90
14585;DHT22;7379;51.506;11.876;2023-09-18T04:58:45;19.60;70.90
14585;DHT22;7379;51.506;11.876;2023-09-18T05:01:12;19.60;70.90
14585;DHT22;7379;51.506;11.876;2023-09-18T05:03:39;19.60;70.90
14585;DHT22;7379;51.506;11.876;2023-09-18T05:06:06;19.60;71.00
14585;DHT22;7379;51.506;11.876;2023-09-18T05:08:34;19.60;71.00
14585;DHT22;7379;51.506;11.876;2023-09-18T05:11:01;19.60;71.00
14585;DHT22;7379;51.506;11.876;2023-09-18T05:13:28;19.60;71.10
14585;DHT22;7379;51.506;11.876;2023-09-18T05:15:54;19.50;71.00
14585;DHT22;7379;51.506;11.876;2023-09-18T05:18:21;19.50;71.00
14585;DHT22;7379;51.506;11.876;2023-09-18T05:20:48;19.50;71.10
14585;DHT22;7379;51.506;11.876;2023-09-18T05:23:15;19.50;71.10
14585;DHT22;7379;51.506;11.876;2023-09-18T05:25:44;19.50;71.10
14585;DHT22;7379;51.506;11.876;2023-09-18T05:28:10;19.50;71.20
14585;DHT22;7379;51.506;11.876;2023-09-18T05:30:37;19.50;71.20
14585;DHT22;7379;51.506;11.876;2023-09-18T05:33:05;19.50;71.20
14585;DHT22;7379;51.506;11.876;2023-09-18T05:35:33;19.50;71.20
14585;DHT22;7379;51.506;11.876;2023-09-18T05:38:00;19.50;71.30
14585;DHT22;7379;51.506;11.876;2023-09-18T05:40:27;19.50;71.30
14585;DHT22;7379;51.506;11.876;2023-09-18T05:42:55;19.40;71.20
14585;DHT22;7379;51.506;11.876;2023-09-18T05:45:23;19.50;71.30
14585;DHT22;7379;51.506;11.876;2023-09-18T05:47:50;19.40;71.20
14585;DHT22;7379;51.506;11.876;2023-09-18T05:50:19;19.40;71.30
14585;DHT22;7379;51.506;11.876;2023-09-18T05:52:46;19.40;71.30
14585;DHT22;7379;51.506;11.876;2023-09-18T05:55:14;19.40;71.40
14585;DHT22;7379;51.506;11.876;2023-09-18T05:57:41;19.40;72.10
14585;DHT22;7379;51.506;11.876;2023-09-18T06:00:10;19.40;71.40
14585;DHT22;7379;51.506;11.876;2023-09-18T06:02:38;19.40;71.50
14585;DHT22;7379;51.506;11.876;2023-09-18T06:05:06;19.40;71.50
14585;DHT22;7379;51.506;11.876;2023-09-18T06:07:33;19.40;71.50
14585;DHT22;7379;51.506;11.876;2023-09-18T06:09:59;19.40;71.50
14585;DHT22;7379;51.506;11.876;2023-09-18T06:12:26;19.40;71.50
14585;DHT22;7379;51.506;11.876;2023-09-18T06:14:53;19.30;71.40
14585;DHT22;7379;51.506;11.876;2023-09-18T06:17:21;19.30;71.40
14585;DHT22;7379;51.506;11.876;2023-09-18T06:19:48;19.30;71.50
14585;DHT22;7379;51.506;11.876;2023-09-18T06:22:14;19.30;71.50
14585;DHT22;7379;51.506;11.876;2023-09-18T06:24:42;19.30;71.50
14585;DHT22;7379;51.506;11.876;2023-09-18T06:27:09;19.30;71.50
14585;DHT22;7379;51.506;11.876;2023-09-18T06:29:36;19.30;71.50
14585;DHT22;7379;51.506;11.876;2023-09-18T06:32:05;19.30;71.50
14585;DHT22;7379;51.506;11.876;2023-09-18T06:34:33;19.30;71.60
14585;DHT22;7379;51.506;11.876;2023-09-18T06:37:00;19.30;71.60
14585;DHT22;7379;51.506;11.876;2023-09-18T06:39:28;19.30;71.60
14585;DHT22;7379;51.506;11.876;2023-09-18T06:41:55;19.30;71.60
14585;DHT22;7379;51.506;11.876;2023-09-18T06:44:22;19.30;71.60
14585;DHT22;7379;51.506;11.876;2023-09-18T06:46:49;19.30;71.70
14585;DHT22;7379;51.506;11.876;2023-09-18T06:49:15;19.30;71.70
14585;DHT22;7379;51.506;11.876;2023-09-18T06:51:43;19.30;71.70
14585;DHT22;7379;51.506;11.876;2023-09-18T06:54:10;19.30;71.70
14585;DHT22;7379;51.506;11.876;2023-09-18T06:56:37;19.30;71.70
14585;DHT22;7379;51.506;11.876;2023-09-18T06:59:04;19.30;71.80
14585;DHT22;7379;51.506;11.876;2023-09-18T07:01:30;19.30;71.90
14585;DHT22;7379;51.506;11.876;2023-09-18T07:03:58;19.30;72.10
14585;DHT22;7379;51.506;11.876;2023-09-18T07:06:25;19.30;72.00
14585;DHT22;7379;51.506;11.876;2023-09-18T07:08:53;19.30;72.10
14585;DHT22;7379;51.506;11.876;2023-09-18T07:11:20;19.30;72.20
14585;DHT22;7379;51.506;11.876;2023-09-18T07:13:46;19.30;72.30
14585;DHT22;7379;51.506;11.876;2023-09-18T07:16:13;19.30;72.50
14585;DHT22;7379;51.506;11.876;2023-09-18T07:18:40;19.40;72.60
14585;DHT22;7379;51.506;11.876;2023-09-18T07:21:07;19.40;72.70
14585;DHT22;7379;51.506;11.876;2023-09-18T07:23:34;19.40;72.90
14585;DHT22;7379;51.506;11.876;2023-09-18T07:26:03;19.40;72.70
14585;DHT22;7379;51.506;11.876;2023-09-18T07:28:31;19.40;72.80
14585;DHT22;7379;51.506;11.876;2023-09-18T07:31:05;19.40;72.80
14585;DHT22;7379;51.506;11.876;2023-09-18T07:33:32;19.40;72.70
14585;DHT22;7379;51.506;11.876;2023-09-18T07:35:59;19.40;72.80
14585;DHT22;7379;51.506;11.876;2023-09-18T07:38:26;19.40;72.70
14585;DHT22;7379;51.506;11.876;2023-09-18T07:40:52;19.40;72.60
14585;DHT22;7379;51.506;11.876;2023-09-18T07:43:21;19.40;72.90
14585;DHT22;7379;51.506;11.876;2023-09-18T07:45:49;19.40;72.80
14585;DHT22;7379;51.506;11.876;2023-09-18T07:48:16;19.50;72.90
14585;DHT22;7379;51.506;11.876;2023-09-18T07:50:45;19.40;72.80
14585;DHT22;7379;51.506;11.876;2023-09-18T07:53:15;19.40;73.00
14585;DHT22;7379;51.506;11.876;2023-09-18T07:55:41;19.40;73.00
14585;DHT22;7379;51.506;11.876;2023-09-18T07:58:08;19.50;73.10
14585;DHT22;7379;51.506;11.876;2023-09-18T08:00:36;19.50;73.20
14585;DHT22;7379;51.506;11.876;2023-09-18T08:03:04;19.50;73.30
14585;DHT22;7379;51.506;11.876;2023-09-18T08:05:30;19.50;73.30
14585;DHT22;7379;51.506;11.876;2023-09-18T08:07:57;19.50;73.10
14585;DHT22;7379;51.506;11.876;2023-09-18T08:10:24;19.50;73.30
14585;DHT22;7379;51.506;11.876;2023-09-18T08:12:51;19.50;73.60
14585;DHT22;7379;51.506;11.876;2023-09-18T08:15:19;19.50;73.30
14585;DHT22;7379;51.506;11.876;2023-09-18T08:17:47;19.50;73.10
14585;DHT22;7379;51.506;11.876;2023-09-18T08:20:15;19.50;73.10
14585;DHT22;7379;51.506;11.876;2023-09-18T08:22:42;19.50;73.30
14585;DHT22;7379;51.506;11.876;2023-09-18T08:25:08;19.50;73.20
14585;DHT22;7379;51.506;11.876;2023-09-18T08:27:36;19.50;73.30
14585;DHT22;7379;51.506;11.876;2023-09-18T08:30:06;19.60;73.40
14585;DHT22;7379;51.506;11.876;2023-09-18T08:32:35;19.60;73.40
14585;DHT22;7379;51.506;11.876;2023-09-18T08:35:03;19.60;73.50
14585;DHT22;7379;51.506;11.876;2023-09-18T08:37:30;19.60;73.60
14585;DHT22;7379;51.506;11.876;2023-09-18T08:39:57;19.60;73.70
14585;DHT22;7379;51.506;11.876;2023-09-18T08:42:25;19.60;73.80
14585;DHT22;7379;51.506;11.876;2023-09-18T08:44:55;19.60;73.90
14585;DHT22;7379;51.506;11.876;2023-09-18T08:47:23;19.60;74.70
14585;DHT22;7379;51.506;11.876;2023-09-18T08:49:51;19.70;74.40
14585;DHT22;7379;51.506;11.876;2023-09-18T08:52:21;19.70;74.40
14585;DHT22;7379;51.506;11.876;2023-09-18T08:54:50;19.70;75.30
14585;DHT22;7379;51.506;11.876;2023-09-18T08:57:17;19.70;75.60
14585;DHT22;7379;51.506;11.876;2023-09-18T08:59:44;19.80;75.80
14585;DHT22;7379;51.506;11.876;2023-09-18T09:02:11;19.80;75.60
14585;DHT22;7379;51.506;11.876;2023-09-18T09:04:38;19.90;76.30
14585;DHT22;7379;51.506;11.876;2023-09-18T09:07:05;19.90;75.70
14585;DHT22;7379;51.506;11.876;2023-09-18T09:09:34;19.90;75.90
14585;DHT22;7379;51.506;11.876;2023-09-18T09:12:00;20.00;75.80
14585;DHT22;7379;51.506;11.876;2023-09-18T09:14:27;20.00;75.80
14585;DHT22;7379;51.506;11.876;2023-09-18T09:16:55;20.00;75.40
14585;DHT22;7379;51.506;11.876;2023-09-18T09:19:33;20.10;75.40
14585;DHT22;7379;51.506;11.876;2023-09-18T09:22:02;20.10;76.10
14585;DHT22;7379;51.506;11.876;2023-09-18T09:24:42;20.10;77.20
14585;DHT22;7379;51.506;11.876;2023-09-18T09:27:09;20.20;76.10
14585;DHT22;7379;51.506;11.876;2023-09-18T09:29:36;20.20;75.90
14585;DHT22;7379;51.506;11.876;2023-09-18T09:32:13;20.20;75.80
14585;DHT22;7379;51.506;11.876;2023-09-18T09:34:41;20.20;75.40
14585;DHT22;7379;51.506;11.876;2023-09-18T09:37:08;20.20;75.30
14585;DHT22;7379;51.506;11.876;2023-09-18T09:39:47;20.20;75.20
14585;DHT22;7379;51.506;11.876;2023-09-18T09:42:16;20.20;75.70
14585;DHT22;7379;51.506;11.876;2023-09-18T09:45:02;20.20;74.90
14585;DHT22;7379;51.506;11.876;2023-09-18T09:47:33;20.30;75.00
14585;DHT22;7379;51.506;11.876;2023-09-18T09:50:06;20.30;75.10
14585;DHT22;7379;51.506;11.876;2023-09-18T09:52:35;20.30;75.20
14585;DHT22;7379;51.506;11.876;2023-09-18T09:55:18;20.30;75.20
14585;DHT22;7379;51.506;11.876;2023-09-18T09:57:49;20.30;75.20
14585;DHT22;7379;51.506;11.876;2023-09-18T10:00:16;20.30;75.70
14585;DHT22;7379;51.506;11.876;2023-09-18T10:02:54;20.40;77.50
14585;DHT22;7379;51.506;11.876;2023-09-18T10:05:24;20.50;77.90
14585;DHT22;7379;51.506;11.876;2023-09-18T10:07:51;20.60;78.20
14585;DHT22;7379;51.506;11.876;2023-09-18T10:10:20;20.70;78.50
14585;DHT22;7379;51.506;11.876;2023-09-18T10:12:47;20.80;79.00
14585;DHT22;7379;51.506;11.876;2023-09-18T10:15:16;20.90;77.90
14585;DHT22;7379;51.506;11.876;2023-09-18T10:17:43;21.00;78.00
14585;DHT22;7379;51.506;11.876;2023-09-18T10:20:12;21.10;77.70
14585;DHT22;7379;51.506;11.876;2023-09-18T10:22:45;21.20;76.40
14585;DHT22;7379;51.506;11.876;2023-09-18T10:25:15;21.30;76.90
14585;DHT22;7379;51.506;11.876;2023-09-18T10:27:45;21.30;76.00
14585;DHT22;7379;51.506;11.876;2023-09-18T10:30:15;21.40;76.30
14585;DHT22;7379;51.506;11.876;2023-09-18T10:32:44;21.40;75.80
14585;DHT22;7379;51.506;11.876;2023-09-18T10:35:12;21.40;75.90
14585;DHT22;7379;51.506;11.876;2023-09-18T10:37:41;21.40;75.90
14585;DHT22;7379;51.506;11.876;2023-09-18T10:40:09;21.50;75.40
14585;DHT22;7379;51.506;11.876;2023-09-18T10:42:39;21.40;75.70
14585;DHT22;7379;51.506;11.876;2023-09-18T10:45:10;21.50;75.40
14585;DHT22;7379;51.506;11.876;2023-09-18T10:47:38;21.40;75.10
14585;DHT22;7379;51.506;11.876;2023-09-18T10:50:06;21.50;75.00
14585;DHT22;7379;51.506;11.876;2023-09-18T10:52:34;21.50;74.70
14585;DHT22;7379;51.506;11.876;2023-09-18T10:55:01;21.50;75.00
14585;DHT22;7379;51.506;11.876;2023-09-18T10:57:33;21.40;74.90
14585;DHT22;7379;51.506;11.876;2023-09-18T11:00:01;21.40;75.80
14585;DHT22;7379;51.506;11.876;2023-09-18T11:02:40;21.40;76.20
14585;DHT22;7379;51.506;11.876;2023-09-18T11:05:07;21.40;76.20
14585;DHT22;7379;51.506;11.876;2023-09-18T11:07:34;21.40;75.70
14585;DHT22;7379;51.506;11.876;2023-09-18T11:10:26;21.40;76.20
14585;DHT22;7379;51.506;11.876;2023-09-18T11:12:53;21.40;76.60
14585;DHT22;7379;51.506;11.876;2023-09-18T11:15:32;21.40;76.60
14585;DHT22;7379;51.506;11.876;2023-09-18T11:18:02;21.40;76.10
14585;DHT22;7379;51.506;11.876;2023-09-18T11:20:29;21.40;76.80
14585;DHT22;7379;51.506;11.876;2023-09-18T11:22:57;21.40;75.90
14585;DHT22;7379;51.506;11.876;2023-09-18T11:25:35;21.40;77.20
14585;DHT22;7379;51.506;11.876;2023-09-18T11:28:03;21.30;76.60
14585;DHT22;7379;51.506;11.876;2023-09-18T11:30:33;21.30;76.50
14585;DHT22;7379;51.506;11.876;2023-09-18T11:33:03;21.40;75.80
14585;DHT22;7379;51.506;11.876;2023-09-18T11:35:31;21.40;76.60
14585;DHT22;7379;51.506;11.876;2023-09-18T11:38:06;21.40;75.90
14585;DHT22;7379;51.506;11.876;2023-09-18T11:40:34;21.50;75.60
14585;DHT22;7379;51.506;11.876;2023-09-18T11:43:20;21.50;75.40
14585;DHT22;7379;51.506;11.876;2023-09-18T11:45:51;21.50;75.20
14585;DHT22;7379;51.506;11.876;2023-09-18T11:48:20;21.60;75.30
14585;DHT22;7379;51.506;11.876;2023-09-18T11:50:52;21.60;75.30
14585;DHT22;7379;51.506;11.876;2023-09-18T11:53:19;21.70;75.50
14585;DHT22;7379;51.506;11.876;2023-09-18T11:55:48;21.70;74.90
14585;DHT22;7379;51.506;11.876;2023-09-18T11:58:15;21.60;74.60
14585;DHT22;7379;51.506;11.876;2023-09-18T12:00:42;21.60;74.50
14585;DHT22;7379;51.506;11.876;2023-09-18T12:03:16;21.70;74.30
14585;DHT22;7379;51.506;11.876;2023-09-18T12:05:52;21.60;74.40
14585;DHT22;7379;51.506;11.876;2023-09-18T12:08:20;21.60;73.90
14585;DHT22;7379;51.506;11.876;2023-09-18T12:10:50;21.60;73.90
14585;DHT22;7379;51.506;11.876;2023-09-18T12:13:17;21.70;73.70
14585;DHT22;7379;51.506;11.876;2023-09-18T12:15:43;21.70;73.20
14585;DHT22;7379;51.506;11.876;2023-09-18T12:18:11;21.80;73.00
14585;DHT22;7379;51.506;11.876;2023-09-18T12:20:45;21.80;72.90
14585;DHT22;7379;51.506;11.876;2023-09-18T12:23:13;21.80;73.30
14585;DHT22;7379;51.506;11.876;2023-09-18T12:25:40;21.70;73.20
14585;DHT22;7379;51.506;11.876;2023-09-18T12:28:07;21.80;72.90
14585;DHT22;7379;51.506;11.876;2023-09-18T12:30:34;21.80;73.40
14585;DHT22;7379;51.506;11.876;2023-09-18T12:33:01;21.80;73.10
14585;DHT22;7379;51.506;11.876;2023-09-18T12:35:29;21.80;72.90
14585;DHT22;7379;51.506;11.876;2023-09-18T12:37:56;21.90;73.20
14585;DHT22;7379;51.506;11.876;2023-09-18T12:40:26;21.90;72.80
14585;DHT22;7379;51.506;11.876;2023-09-18T12:42:55;21.90;73.00
14585;DHT22;7379;51.506;11.876;2023-09-18T12:45:22;21.90;72.90
14585;DHT22;7379;51.506;11.876;2023-09-18T12:47:50;22.00;73.50
14585;DHT22;7379;51.506;11.876;2023-09-18T12:50:17;22.00;73.40
14585;DHT22;7379;51.506;11.876;2023-09-18T12:52:44;21.90;73.60
14585;DHT22;7379;51.506;11.876;2023-09-18T12:55:21;21.90;73.90
14585;DHT22;7379;51.506;11.876;2023-09-18T12:57:51;21.90;74.20
14585;DHT22;7379;51.506;11.876;2023-09-18T13:00:19;21.90;74.20
14585;DHT22;7379;51.506;11.876;2023-09-18T13:02:48;21.90;74.20
14585;DHT22;7379;51.506;11.876;2023-09-18T13:05:19;21.90;74.90
14585;DHT22;7379;51.506;11.876;2023-09-18T13:07:46;21.90;74.60
14585;DHT22;7379;51.506;11.876;2023-09-18T13:10:13;21.90;74.50
14585;DHT22;7379;51.506;11.876;2023-09-18T13:12:42;21.90;74.60
14585;DHT22;7379;51.506;11.876;2023-09-18T13:15:10;21.90;75.50
14585;DHT22;7379;51.506;11.876;2023-09-18T13:17:38;21.90;75.20
14585;DHT22;7379;51.506;11.876;2023-09-18T13:20:13;21.90;75.30
14585;DHT22;7379;51.506;11.876;2023-09-18T13:22:41;21.90;74.90
14585;DHT22;7379;51.506;11.876;2023-09-18T13:25:09;21.90;75.00
14585;DHT22;7379;51.506;11.876;2023-09-18T13:27:36;22.00;73.20
14585;DHT22;7379;51.506;11.876;2023-09-18T13:30:05;22.00;71.60
14585;DHT22;7379;51.506;11.876;2023-09-18T13:32:36;22.00;71.80
14585;DHT22;7379;51.506;11.876;2023-09-18T13:35:03;22.00;71.70
14585;DHT22;7379;51.506;11.876;2023-09-18T13:37:31;22.10;71.20
14585;DHT22;7379;51.506;11.876;2023-09-18T13:39:58;22.10;71.20
14585;DHT22;7379;51.506;11.876;2023-09-18T13:42:27;22.10;70.80
14585;DHT22;7379;51.506;11.876;2023-09-18T13:44:55;22.00;70.90
14585;DHT22;7379;51.506;11.876;2023-09-18T13:47:22;22.00;71.00
14585;DHT22;7379;51.506;11.876;2023-09-18T13:49:50;22.00;71.00
14585;DHT22;7379;51.506;11.876;2023-09-18T13:52:17;22.00;71.50
14585;DHT22;7379;51.506;11.876;2023-09-18T13:54:45;22.00;71.60
14585;DHT22;7379;51.506;11.876;2023-09-18T13:57:16;21.90;71.70
14585;DHT22;7379;51.506;11.876;2023-09-18T13:59:44;21.90;71.90
14585;DHT22;7379;51.506;11.876;2023-09-18T14:02:11;21.90;72.20
14585;DHT22;7379;51.506;11.876;2023-09-18T14:04:38;21.80;72.50
14585;DHT22;7379;51.506;11.876;2023-09-18T14:07:06;21.80;73.00
14585;DHT22;7379;51.506;11.876;2023-09-18T14:09:33;21.70;73.40
14585;DHT22;7379;51.506;11.876;2023-09-18T14:12:00;21.70;74.20
14585;DHT22;7379;51.506;11.876;2023-09-18T14:14:28;21.70;74.50
14585;DHT22;7379;51.506;11.876;2023-09-18T14:16:55;21.60;74.70
14585;DHT22;7379;51.506;11.876;2023-09-18T14:19:22;21.60;75.00
14585;DHT22;7379;51.506;11.876;2023-09-18T14:21:50;21.60;75.20
14585;DHT22;7379;51.506;11.876;2023-09-18T14:24:18;21.60;75.50
14585;DHT22;7379;51.506;11.876;2023-09-18T14:26:51;21.50;75.70
14585;DHT22;7379;51.506;11.876;2023-09-18T14:29:18;21.50;75.90
14585;DHT22;7379;51.506;11.876;2023-09-18T14:31:44;21.50;76.10
14585;DHT22;7379;51.506;11.876;2023-09-18T14:34:11;21.50;76.30
14585;DHT22;7379;51.506;11.876;2023-09-18T14:36:38;21.50;76.40
14585;DHT22;7379;51.506;11.876;2023-09-18T14:39:05;21.40;76.30
14585;DHT22;7379;51.506;11.876;2023-09-18T14:41:35;21.40;76.40
14585;DHT22;7379;51.506;11.876;2023-09-18T14:44:02;21.40;76.80
14585;DHT22;7379;51.506;11.876;2023-09-18T14:46:29;21.40;76.90
14585;DHT22;7379;51.506;11.876;2023-09-18T14:48:56;21.40;77.10
14585;DHT22;7379;51.506;11.876;2023-09-18T14:51:23;21.40;77.30
14585;DHT22;7379;51.506;11.876;2023-09-18T14:53:50;21.40;77.50
14585;DHT22;7379;51.506;11.876;2023-09-18T14:56:17;21.40;77.80
14585;DHT22;7379;51.506;11.876;2023-09-18T14:58:45;21.40;78.00
14585;DHT22;7379;51.506;11.876;2023-09-18T15:01:12;21.40;77.90
14585;DHT22;7379;51.506;11.876;2023-09-18T15:03:40;21.40;77.90
14585;DHT22;7379;51.506;11.876;2023-09-18T15:06:07;21.40;77.90
14585;DHT22;7379;51.506;11.876;2023-09-18T15:08:34;21.40;77.80
14585;DHT22;7379;51.506;11.876;2023-09-18T15:11:00;21.40;77.80
14585;DHT22;7379;51.506;11.876;2023-09-18T15:13:29;21.40;78.10
14585;DHT22;7379;51.506;11.876;2023-09-18T15:15:57;21.40;78.10
14585;DHT22;7379;51.506;11.876;2023-09-18T15:18:25;21.40;78.20
14585;DHT22;7379;51.506;11.876;2023-09-18T15:20:52;21.40;78.40
14585;DHT22;7379;51.506;11.876;2023-09-18T15:23:19;21.40;78.40
14585;DHT22;7379;51.506;11.876;2023-09-18T15:25:48;21.30;78.20
14585;DHT22;7379;51.506;11.876;2023-09-18T15:28:16;21.40;78.40
14585;DHT22;7379;51.506;11.876;2023-09-18T15:30:43;21.40;78.20
14585;DHT22;7379;51.506;11.876;2023-09-18T15:33:11;21.30;78.20
14585;DHT22;7379;51.506;11.876;2023-09-18T15:35:38;21.30;78.20